sensor_id;sensor_type;location;lat;lon;timestamp;temperature;humidity
1534;DHT22;760;48.822;9.304;2022-09-12T04:03:28;11.20;99.90
1534;DHT22;760;48.822;9.304;2022-09-12T04:05:56;11.20;99.90
1534;DHT22;760;48.822;9.304;2022-09-12T04:08:22;11.20;99.90
1534;DHT22;760;48.822;9.304;2022-09-12T04:10:47;11.10;99.90
1534;DHT22;760;48.822;9.304;2022-09-12T04:13:13;11.10;99.90
1534;DHT22;760;48.822;9.304;2022-09-12T04:15:38;11.00;99.90
1534;DHT22;760;48.822;9.304;2022-09-12T04:18:04;11.00;99.90
1534;DHT22;760;48.822;9.304;2022-09-12T04:20:29;11.00;99.90
1534;DHT22;760;48.822;9.304;2022-09-12T04:22:55;11.00;99.90
1534;DHT22;760;48.822;9.304;2022-09-12T04:25:21;11.00;99.90
1534;DHT22;760;48.822;9.304;2022-09-12T04:27:46;10.90;99.90
1534;DHT22;760;48.822;9.304;2022-09-12T04:30:12;11.00;99.90
1534;DHT22;760;48.822;9.304;2022-09-12T04:32:37;10.90;99.90
1534;DHT22;760;48.822;9.304;2022-09-12T04:35:03;10.90;99.90
1534;DHT22;760;48.822;9.304;2022-09-12T04:37:29;10.90;99.90
1534;DHT22;760;48.822;9.304;2022-09-12T04:39:54;10.90;99.90
1534;DHT22;760;48.822;9.304;2022-09-12T04:42:22;10.90;99.90
1534;DHT22;760;48.822;9.304;2022-09-12T04:44:48;10.80;99.90
1534;DHT22;760;48.822;9.304;2022-09-12T04:47:14;10.80;99.90
1534;DHT22;760;48.822;9.304;2022-09-12T04:49:41;10.80;99.90
1534;DHT22;760;48.822;9.304;2022-09-12T04:52:06;10.80;99.90
1534;DHT22;760;48.822;9.304;2022-09-12T04:54:32;10.80;99.90
1534;DHT22;760;48.822;9.304;2022-09-12T04:56:58;10.80;99.90
1534;DHT22;760;48.822;9.304;2022-09-12T04:59:24;10.80;99.90
1534;DHT22;760;48.822;9.304;2022-09-12T05:01:49;10.80;99.90
1534;DHT22;760;48.822;9.304;2022-09-12T05:04:15;10.70;99.90
1534;DHT22;760;48.822;9.304;2022-09-12T05:06:42;10.70;99.90
1534;DHT22;760;48.822;9.304;2022-09-12T05:09:09;10.70;99.90
1534;DHT22;760;48.822;9.304;2022-09-12T05:11:38;10.70;99.90
1534;DHT22;760;48.822;9.304;2022-09-12T05:14:04;10.80;99.90
1534;DHT22;760;48.822;9.304;2022-09-12T05:16:30;10.80;99.90
1534;DHT22;760;48.822;9.304;2022-09-12T05:18:57;10.80;99.90
1534;DHT22;760;48.822;9.304;2022-09-12T05:21:24;10.80;99.90
1534;DHT22;760;48.822;9.304;2022-09-12T05:23:55;10.80;99.90
1534;DHT22;760;48.822;9.304;2022-09-12T05:26:21;10.80;99.90
1534;DHT22;760;48.822;9.304;2022-09-12T05:28:48;10.90;99.90
1534;DHT22;760;48.822;9.304;2022-09-12T05:31:17;10.90;99.90
1534;DHT22;760;48.822;9.304;2022-09-12T05:33:46;10.90;99.90
1534;DHT22;760;48.822;9.304;2022-09-12T05:36:14;11.00;99.90
1534;DHT22;760;48.822;9.304;2022-09-12T05:38:41;11.00;99.90
1534;DHT22;760;48.822;9.304;2022-09-12T05:41:12;11.10;99.90
1534;DHT22;760;48.822;9.304;2022-09-12T05:43:39;11.10;99.90
1534;DHT22;760;48.822;9.304;2022-09-12T05:46:18;11.20;99.90
1534;DHT22;760;48.822;9.304;2022-09-12T05:48:45;11.30;99.90
1534;DHT22;760;48.822;9.304;2022-09-12T05:51:16;11.30;99.90
1534;DHT22;760;48.822;9.304;2022-09-12T05:53:45;11.30;99.90
1534;DHT22;760;48.822;9.304;2022-09-12T05:56:15;11.40;99.90
1534;DHT22;760;48.822;9.304;2022-09-12T05:58:44;11.50;99.90
1534;DHT22;760;48.822;9.304;2022-09-12T06:01:16;11.50;99.90
1534;DHT22;760;48.822;9.304;2022-09-12T06:03:50;11.60;99.90
1534;DHT22;760;48.822;9.304;2022-09-12T06:06:18;11.80;99.90
1534;DHT22;760;48.822;9.304;2022-09-12T06:08:46;11.90;99.90
1534;DHT22;760;48.822;9.304;2022-09-12T06:11:15;12.00;99.90
1534;DHT22;760;48.822;9.304;2022-09-12T06:13:42;12.20;99.90
1534;DHT22;760;48.822;9.304;2022-09-12T06:16:18;12.30;99.90
1534;DHT22;760;48.822;9.304;2022-09-12T06:18:49;12.40;99.90
1534;DHT22;760;48.822;9.304;2022-09-12T06:21:15;12.60;99.90
1534;DHT22;760;48.822;9.304;2022-09-12T06:23:41;12.80;99.90
1534;DHT22;760;48.822;9.304;2022-09-12T06:26:09;12.80;99.90
1534;DHT22;760;48.822;9.304;2022-09-12T06:28:37;13.00;99.90
1534;DHT22;760;48.822;9.304;2022-09-12T06:31:04;13.20;99.90
1534;DHT22;760;48.822;9.304;2022-09-12T06:33:32;13.40;99.90
1534;DHT22;760;48.822;9.304;2022-09-12T06:36:07;13.50;99.90
1534;DHT22;760;48.822;9.304;2022-09-12T06:38:34;13.70;99.90
1534;DHT22;760;48.822;9.304;2022-09-12T06:41:02;13.90;99.90
1534;DHT22;760;48.822;9.304;2022-09-12T06:43:29;14.10;99.90
1534;DHT22;760;48.822;9.304;2022-09-12T06:45:55;14.30;99.90
1534;DHT22;760;48.822;9.304;2022-09-12T06:48:20;14.40;99.90
1534;DHT22;760;48.822;9.304;2022-09-12T06:51:03;14.30;99.90
1534;DHT22;760;48.822;9.304;2022-09-12T06:53:30;14.20;99.90
1534;DHT22;760;48.822;9.304;2022-09-12T06:58:31;14.10;99.90
1534;DHT22;760;48.822;9.304;2022-09-12T07:01:02;14.10;99.90
1534;DHT22;760;48.822;9.304;2022-09-12T07:03:29;14.20;99.90
1534;DHT22;760;48.822;9.304;2022-09-12T07:05:55;14.40;99.90
1534;DHT22;760;48.822;9.304;2022-09-12T07:08:20;14.70;99.90
1534;DHT22;760;48.822;9.304;2022-09-12T07:10:46;14.90;99.90
1534;DHT22;760;48.822;9.304;2022-09-12T07:13:11;15.10;99.90
1534;DHT22;760;48.822;9.304;2022-09-12T07:15:38;15.30;99.90
1534;DHT22;760;48.822;9.304;2022-09-12T07:18:03;15.60;99.90
1534;DHT22;760;48.822;9.304;2022-09-12T07:20:29;15.80;99.90
1534;DHT22;760;48.822;9.304;2022-09-12T07:22:58;16.00;99.90
1534;DHT22;760;48.822;9.304;2022-09-12T07:25:23;16.00;99.90
1534;DHT22;760;48.822;9.304;2022-09-12T07:27:49;16.10;99.90
1534;DHT22;760;48.822;9.304;2022-09-12T07:30:17;16.30;99.90
1534;DHT22;760;48.822;9.304;2022-09-12T07:32:43;16.40;99.90
1534;DHT22;760;48.822;9.304;2022-09-12T07:35:08;16.60;99.90
1534;DHT22;760;48.822;9.304;2022-09-12T07:37:34;16.80;99.90
1534;DHT22;760;48.822;9.304;2022-09-12T07:40:00;17.10;99.90
1534;DHT22;760;48.822;9.304;2022-09-12T07:42:26;17.30;99.90
1534;DHT22;760;48.822;9.304;2022-09-12T07:44:52;17.50;99.90
1534;DHT22;760;48.822;9.304;2022-09-12T07:47:18;17.60;99.90
1534;DHT22;760;48.822;9.304;2022-09-12T07:49:43;17.70;99.90
1534;DHT22;760;48.822;9.304;2022-09-12T07:52:09;17.80;99.90
1534;DHT22;760;48.822;9.304;2022-09-12T07:54:34;18.00;99.90
1534;DHT22;760;48.822;9.304;2022-09-12T07:57:01;18.50;99.90
1534;DHT22;760;48.822;9.304;2022-09-12T07:59:26;19.30;99.90
1534;DHT22;760;48.822;9.304;2022-09-12T08:01:52;20.50;99.90
1534;DHT22;760;48.822;9.304;2022-09-12T08:16:32;21.90;99.90
1534;DHT22;760;48.822;9.304;2022-09-12T08:18:59;27.70;92.50
1534;DHT22;760;48.822;9.304;2022-09-12T08:21:27;28.30;91.10
1534;DHT22;760;48.822;9.304;2022-09-12T08:23:58;29.00;87.70
1534;DHT22;760;48.822;9.304;2022-09-12T08:26:25;29.50;85.40
1534;DHT22;760;48.822;9.304;2022-09-12T08:28:51;30.20;83.10
1534;DHT22;760;48.822;9.304;2022-09-12T08:31:19;30.60;81.60
1534;DHT22;760;48.822;9.304;2022-09-12T08:33:45;31.30;80.60
1534;DHT22;760;48.822;9.304;2022-09-12T08:38:42;31.90;76.90
1534;DHT22;760;48.822;9.304;2022-09-12T08:49:32;32.80;72.10
1534;DHT22;760;48.822;9.304;2022-09-12T08:52:04;33.60;69.70
1534;DHT22;760;48.822;9.304;2022-09-12T08:54:32;34.10;66.80
1534;DHT22;760;48.822;9.304;2022-09-12T08:57:01;34.70;65.40
1534;DHT22;760;48.822;9.304;2022-09-12T08:59:35;35.00;63.80
1534;DHT22;760;48.822;9.304;2022-09-12T09:02:17;35.00;62.80
1534;DHT22;760;48.822;9.304;2022-09-12T09:04:51;35.20;60.60
1534;DHT22;760;48.822;9.304;2022-09-12T09:10:00;35.20;59.80
1534;DHT22;760;48.822;9.304;2022-09-12T09:15:47;34.50;59.80
1534;DHT22;760;48.822;9.304;2022-09-12T09:18:21;34.50;58.80
1534;DHT22;760;48.822;9.304;2022-09-12T09:20:49;34.30;59.10
1534;DHT22;760;48.822;9.304;2022-09-12T09:28:35;34.90;58.90
1534;DHT22;760;48.822;9.304;2022-09-12T09:31:02;34.50;58.50
1534;DHT22;760;48.822;9.304;2022-09-12T09:33:33;34.40;59.30
1534;DHT22;760;48.822;9.304;2022-09-12T09:39:04;33.80;59.30
1534;DHT22;760;48.822;9.304;2022-09-12T09:44:15;33.40;60.80
1534;DHT22;760;48.822;9.304;2022-09-12T09:46:40;33.80;59.60
1534;DHT22;760;48.822;9.304;2022-09-12T09:49:11;34.10;58.90
1534;DHT22;760;48.822;9.304;2022-09-12T09:51:39;34.00;59.10
1534;DHT22;760;48.822;9.304;2022-09-12T09:54:16;34.00;60.30
1534;DHT22;760;48.822;9.304;2022-09-12T09:56:43;34.10;58.90
1534;DHT22;760;48.822;9.304;2022-09-12T10:01:34;34.00;58.50
1534;DHT22;760;48.822;9.304;2022-09-12T10:04:00;34.00;58.30
1534;DHT22;760;48.822;9.304;2022-09-12T10:06:30;34.00;57.90
1534;DHT22;760;48.822;9.304;2022-09-12T10:09:17;34.10;57.80
1534;DHT22;760;48.822;9.304;2022-09-12T10:11:43;34.10;57.90
1534;DHT22;760;48.822;9.304;2022-09-12T10:14:29;34.10;56.40
1534;DHT22;760;48.822;9.304;2022-09-12T10:16:55;34.20;56.20
1534;DHT22;760;48.822;9.304;2022-09-12T10:19:38;34.60;56.00
1534;DHT22;760;48.822;9.304;2022-09-12T10:22:06;34.80;56.20
1534;DHT22;760;48.822;9.304;2022-09-12T10:24:42;34.90;55.40
1534;DHT22;760;48.822;9.304;2022-09-12T10:32:26;33.20;57.20
1534;DHT22;760;48.822;9.304;2022-09-12T10:34:59;33.20;57.50
1534;DHT22;760;48.822;9.304;2022-09-12T10:37:33;33.00;57.20
1534;DHT22;760;48.822;9.304;2022-09-12T10:40:00;32.90;57.30
1534;DHT22;760;48.822;9.304;2022-09-12T10:42:49;32.90;56.80
1534;DHT22;760;48.822;9.304;2022-09-12T10:47:53;32.80;57.80
1534;DHT22;760;48.822;9.304;2022-09-12T10:50:29;32.40;58.10
1534;DHT22;760;48.822;9.304;2022-09-12T10:53:17;32.30;57.90
1534;DHT22;760;48.822;9.304;2022-09-12T11:06:37;30.80;59.60
1534;DHT22;760;48.822;9.304;2022-09-12T11:09:13;30.20;59.80
1534;DHT22;760;48.822;9.304;2022-09-12T11:12:08;29.40;62.40
1534;DHT22;760;48.822;9.304;2022-09-12T11:14:59;28.70;64.20
1534;DHT22;760;48.822;9.304;2022-09-12T11:20:44;27.60;66.00
1534;DHT22;760;48.822;9.304;2022-09-12T11:23:25;27.20;68.00
1534;DHT22;760;48.822;9.304;2022-09-12T11:28:58;26.70;67.90
1534;DHT22;760;48.822;9.304;2022-09-12T11:37:29;26.20;67.00
1534;DHT22;760;48.822;9.304;2022-09-12T11:40:08;26.00;66.60
1534;DHT22;760;48.822;9.304;2022-09-12T11:42:44;25.80;67.60
1534;DHT22;760;48.822;9.304;2022-09-12T11:45:21;25.60;68.50
1534;DHT22;760;48.822;9.304;2022-09-12T11:47:52;25.60;68.90
1534;DHT22;760;48.822;9.304;2022-09-12T11:50:25;25.60;68.70
1534;DHT22;760;48.822;9.304;2022-09-12T11:52:52;25.60;69.40
1534;DHT22;760;48.822;9.304;2022-09-12T11:55:26;25.70;67.50
1534;DHT22;760;48.822;9.304;2022-09-12T11:57:56;25.60;67.70
1534;DHT22;760;48.822;9.304;2022-09-12T12:00:46;25.60;67.80
1534;DHT22;760;48.822;9.304;2022-09-12T12:03:19;25.70;67.70
1534;DHT22;760;48.822;9.304;2022-09-12T12:06:06;25.80;67.40
1534;DHT22;760;48.822;9.304;2022-09-12T12:08:39;25.80;66.10
1534;DHT22;760;48.822;9.304;2022-09-12T12:11:06;25.60;66.20
1534;DHT22;760;48.822;9.304;2022-09-12T12:13:36;25.40;68.10
1534;DHT22;760;48.822;9.304;2022-09-12T12:16:19;25.30;67.40
1534;DHT22;760;48.822;9.304;2022-09-12T12:18:56;25.20;66.90
1534;DHT22;760;48.822;9.304;2022-09-12T12:24:12;25.10;67.50
1534;DHT22;760;48.822;9.304;2022-09-12T12:34:32;25.10;63.60
1534;DHT22;760;48.822;9.304;2022-09-12T12:37:34;25.10;63.70
1534;DHT22;760;48.822;9.304;2022-09-12T12:47:49;25.00;63.80
1534;DHT22;760;48.822;9.304;2022-09-12T12:58:24;25.00;63.30
1534;DHT22;760;48.822;9.304;2022-09-12T13:03:30;25.00;64.30
1534;DHT22;760;48.822;9.304;2022-09-12T13:06:02;25.00;64.40
1534;DHT22;760;48.822;9.304;2022-09-12T13:08:32;25.10;66.20
1534;DHT22;760;48.822;9.304;2022-09-12T13:11:07;25.10;64.40
1534;DHT22;760;48.822;9.304;2022-09-12T13:13:48;25.20;60.70
1534;DHT22;760;48.822;9.304;2022-09-12T13:16:36;25.20;60.30
1534;DHT22;760;48.822;9.304;2022-09-12T13:19:16;25.30;60.20
1534;DHT22;760;48.822;9.304;2022-09-12T13:22:03;25.30;61.10
1534;DHT22;760;48.822;9.304;2022-09-12T13:24:29;25.20;61.00
1534;DHT22;760;48.822;9.304;2022-09-12T13:26:55;25.30;61.50
1534;DHT22;760;48.822;9.304;2022-09-12T13:29:26;25.30;61.20
1534;DHT22;760;48.822;9.304;2022-09-12T13:31:54;25.30;60.80
1534;DHT22;760;48.822;9.304;2022-09-12T13:34:32;25.30;59.70
1534;DHT22;760;48.822;9.304;2022-09-12T13:37:47;25.30;59.60
1534;DHT22;760;48.822;9.304;2022-09-12T13:40:31;25.30;59.90
1534;DHT22;760;48.822;9.304;2022-09-12T13:43:15;25.30;59.80
1534;DHT22;760;48.822;9.304;2022-09-12T13:45:44;25.30;58.10
1534;DHT22;760;48.822;9.304;2022-09-12T13:48:20;25.30;58.30
1534;DHT22;760;48.822;9.304;2022-09-12T13:50:52;25.30;58.50
1534;DHT22;760;48.822;9.304;2022-09-12T13:53:22;25.30;59.30
1534;DHT22;760;48.822;9.304;2022-09-12T13:55:57;25.30;59.50
1534;DHT22;760;48.822;9.304;2022-09-12T13:58:24;25.30;60.50
1534;DHT22;760;48.822;9.304;2022-09-12T14:01:13;25.30;60.20
1534;DHT22;760;48.822;9.304;2022-09-12T14:03:42;25.30;59.20
1534;DHT22;760;48.822;9.304;2022-09-12T14:06:26;25.30;59.30
1534;DHT22;760;48.822;9.304;2022-09-12T14:08:53;25.30;58.90
1534;DHT22;760;48.822;9.304;2022-09-12T14:11:28;25.30;59.00
1534;DHT22;760;48.822;9.304;2022-09-12T14:13:55;25.20;58.30
1534;DHT22;760;48.822;9.304;2022-09-12T14:16:22;25.20;57.60
1534;DHT22;760;48.822;9.304;2022-09-12T14:18:50;25.20;57.60
1534;DHT22;760;48.822;9.304;2022-09-12T14:21:25;25.10;57.80
1534;DHT22;760;48.822;9.304;2022-09-12T14:23:55;25.10;58.50
1534;DHT22;760;48.822;9.304;2022-09-12T14:26:22;25.00;58.50
1534;DHT22;760;48.822;9.304;2022-09-12T14:28:49;25.00;58.40
1534;DHT22;760;48.822;9.304;2022-09-12T14:31:27;25.00;58.60
1534;DHT22;760;48.822;9.304;2022-09-12T14:33:55;25.10;58.30
1534;DHT22;760;48.822;9.304;2022-09-12T14:36:43;25.00;57.80
1534;DHT22;760;48.822;9.304;2022-09-12T14:41:46;25.00;58.00
1534;DHT22;760;48.822;9.304;2022-09-12T14:44:22;25.00;59.30
1534;DHT22;760;48.822;9.304;2022-09-12T14:46:49;25.00;60.00
1534;DHT22;760;48.822;9.304;2022-09-12T14:49:23;25.00;58.90
1534;DHT22;760;48.822;9.304;2022-09-12T14:51:55;25.00;58.30
1534;DHT22;760;48.822;9.304;2022-09-12T14:56:59;25.00;58.00
1534;DHT22;760;48.822;9.304;2022-09-12T14:59:35;24.90;58.40
1534;DHT22;760;48.822;9.304;2022-09-12T15:10:05;24.90;58.00
1534;DHT22;760;48.822;9.304;2022-09-12T15:12:31;24.80;58.60
1534;DHT22;760;48.822;9.304;2022-09-12T15:15:12;24.80;59.20
1534;DHT22;760;48.822;9.304;2022-09-12T15:17:38;24.80;58.80
1534;DHT22;760;48.822;9.304;2022-09-12T15:20:04;24.70;59.40
1534;DHT22;760;48.822;9.304;2022-09-12T15:22:31;24.80;59.60
1534;DHT22;760;48.822;9.304;2022-09-12T15:24:57;24.70;59.70
1534;DHT22;760;48.822;9.304;2022-09-12T15:27:23;24.70;60.40
1534;DHT22;760;48.822;9.304;2022-09-12T15:29:51;24.70;60.90
1534;DHT22;760;48.822;9.304;2022-09-12T15:32:25;24.60;60.30
1534;DHT22;760;48.822;9.304;2022-09-12T15:34:51;24.60;60.40
1534;DHT22;760;48.822;9.304;2022-09-12T15:37:18;24.60;59.90
1534;DHT22;760;48.822;9.304;2022-09-12T15:39:45;24.60;59.70
1534;DHT22;760;48.822;9.304;2022-09-12T15:42:12;24.50;60.40
1534;DHT22;760;48.822;9.304;2022-09-12T15:44:38;24.40;60.40
1534;DHT22;760;48.822;9.304;2022-09-12T15:47:04;24.40;60.40
1534;DHT22;760;48.822;9.304;2022-09-12T15:49:30;24.40;61.10
1534;DHT22;760;48.822;9.304;2022-09-12T15:51:56;24.40;61.50
1534;DHT22;760;48.822;9.304;2022-09-12T15:54:22;24.40;62.00
1534;DHT22;760;48.822;9.304;2022-09-12T15:56:48;24.40;62.40
1534;DHT22;760;48.822;9.304;2022-09-12T15:59:16;24.40;62.90
1534;DHT22;760;48.822;9.304;2022-09-12T16:01:41;24.40;62.80
1534;DHT22;760;48.822;9.304;2022-09-12T16:04:24;24.40;62.60
1534;DHT22;760;48.822;9.304;2022-09-12T16:06:50;24.40;63.30
1534;DHT22;760;48.822;9.304;2022-09-12T16:09:16;24.30;63.30
1534;DHT22;760;48.822;9.304;2022-09-12T16:11:42;24.30;63.50
1534;DHT22;760;48.822;9.304;2022-09-12T16:14:10;24.20;63.20
1534;DHT22;760;48.822;9.304;2022-09-12T16:16:37;24.30;62.90
1534;DHT22;760;48.822;9.304;2022-09-12T16:19:03;24.20;63.60
1534;DHT22;760;48.822;9.304;2022-09-12T16:21:28;24.20;63.50
1534;DHT22;760;48.822;9.304;2022-09-12T16:23:55;24.10;63.30
1534;DHT22;760;48.822;9.304;2022-09-12T16:26:20;24.10;64.00
1534;DHT22;760;48.822;9.304;2022-09-12T16:28:46;24.00;64.30
1534;DHT22;760;48.822;9.304;2022-09-12T16:31:12;24.00;64.40
1534;DHT22;760;48.822;9.304;2022-09-12T16:33:38;23.90;64.80
1534;DHT22;760;48.822;9.304;2022-09-12T16:36:12;23.90;65.40
1534;DHT22;760;48.822;9.304;2022-09-12T16:38:43;23.80;66.00
1534;DHT22;760;48.822;9.304;2022-09-12T16:41:09;23.80;67.00
1534;DHT22;760;48.822;9.304;2022-09-12T16:43:35;23.80;67.20
1534;DHT22;760;48.822;9.304;2022-09-12T16:46:08;23.70;67.60
1534;DHT22;760;48.822;9.304;2022-09-12T16:48:34;23.70;68.10
1534;DHT22;760;48.822;9.304;2022-09-12T16:51:02;23.60;68.30
1534;DHT22;760;48.822;9.304;2022-09-12T16:53:32;23.60;68.80
1534;DHT22;760;48.822;9.304;2022-09-12T16:55:58;23.50;68.80
1534;DHT22;760;48.822;9.304;2022-09-12T16:58:24;23.50;68.80
1534;DHT22;760;48.822;9.304;2022-09-12T17:00:59;23.40;69.40
1534;DHT22;760;48.822;9.304;2022-09-12T17:03:25;23.40;69.90
1534;DHT22;760;48.822;9.304;2022-09-12T17:06:18;23.30;70.60
1534;DHT22;760;48.822;9.304;2022-09-12T17:08:46;23.20;71.30
1534;DHT22;760;48.822;9.304;2022-09-12T17:11:16;23.10;72.10
1534;DHT22;760;48.822;9.304;2022-09-12T17:13:50;23.10;72.50
1534;DHT22;760;48.822;9.304;2022-09-12T17:16:17;23.00;73.40
1534;DHT22;760;48.822;9.304;2022-09-12T17:18:43;22.90;74.30
1534;DHT22;760;48.822;9.304;2022-09-12T17:21:10;22.80;74.90
1534;DHT22;760;48.822;9.304;2022-09-12T17:23:36;22.70;75.60
1534;DHT22;760;48.822;9.304;2022-09-12T17:26:02;22.60;76.90
1534;DHT22;760;48.822;9.304;2022-09-12T17:28:28;22.50;78.10
1534;DHT22;760;48.822;9.304;2022-09-12T17:30:55;22.50;78.30
1534;DHT22;760;48.822;9.304;2022-09-12T17:33:21;22.40;79.10
1534;DHT22;760;48.822;9.304;2022-09-12T17:35:47;22.30;79.40
1534;DHT22;760;48.822;9.304;2022-09-12T17:38:12;22.20;79.80
1534;DHT22;760;48.822;9.304;2022-09-12T17:40:38;22.10;80.80
1534;DHT22;760;48.822;9.304;2022-09-12T17:43:04;22.00;81.80
1534;DHT22;760;48.822;9.304;2022-09-12T17:45:29;21.90;81.90
1534;DHT22;760;48.822;9.304;2022-09-12T17:47:55;21.80;82.40
1534;DHT22;760;48.822;9.304;2022-09-12T17:50:21;21.70;82.90
1534;DHT22;760;48.822;9.304;2022-09-12T17:52:46;21.60;83.50
1534;DHT22;760;48.822;9.304;2022-09-12T17:55:12;21.40;84.20
1534;DHT22;760;48.822;9.304;2022-09-12T17:57:39;21.30;84.60
1534;DHT22;760;48.822;9.304;2022-09-12T18:00:06;21.20;85.10
1534;DHT22;760;48.822;9.304;2022-09-12T18:02:33;21.10;85.40
1534;DHT22;760;48.822;9.304;2022-09-12T18:04:58;21.00;86.50
1534;DHT22;760;48.822;9.304;2022-09-12T18:07:24;20.90;87.60
1534;DHT22;760;48.822;9.304;2022-09-12T18:09:50;20.90;87.80
1534;DHT22;760;48.822;9.304;2022-09-12T18:12:16;20.80;88.40
1534;DHT22;760;48.822;9.304;2022-09-12T18:14:42;20.70;88.70
1534;DHT22;760;48.822;9.304;2022-09-12T18:17:08;20.60;88.80
1534;DHT22;760;48.822;9.304;2022-09-12T18:19:36;20.60;89.50
1534;DHT22;760;48.822;9.304;2022-09-12T18:22:03;20.40;90.10
1534;DHT22;760;48.822;9.304;2022-09-12T18:24:30;20.30;90.40
1534;DHT22;760;48.822;9.304;2022-09-12T18:26:56;20.30;90.30
1534;DHT22;760;48.822;9.304;2022-09-12T18:29:22;20.30;90.50
1534;DHT22;760;48.822;9.304;2022-09-12T18:31:47;20.20;90.50
1534;DHT22;760;48.822;9.304;2022-09-12T18:34:16;20.10;90.60
1534;DHT22;760;48.822;9.304;2022-09-12T18:36:48;20.10;90.90
1534;DHT22;760;48.822;9.304;2022-09-12T18:39:14;20.00;91.10
1534;DHT22;760;48.822;9.304;2022-09-12T18:41:40;20.00;91.70
1534;DHT22;760;48.822;9.304;2022-09-12T18:44:06;19.90;92.50
1534;DHT22;760;48.822;9.304;2022-09-12T18:46:33;19.80;92.90
1534;DHT22;760;48.822;9.304;2022-09-12T18:49:00;19.70;93.40
1534;DHT22;760;48.822;9.304;2022-09-12T18:51:28;19.60;93.80
1534;DHT22;760;48.822;9.304;2022-09-12T18:54:00;19.50;94.10
1534;DHT22;760;48.822;9.304;2022-09-12T18:56:28;19.50;94.20
1534;DHT22;760;48.822;9.304;2022-09-12T18:58:57;19.50;94.30
1534;DHT22;760;48.822;9.304;2022-09-12T19:01:37;19.40;94.30
1534;DHT22;760;48.822;9.304;2022-09-12T19:04:04;19.30;94.50
1534;DHT22;760;48.822;9.304;2022-09-12T19:06:38;19.10;94.60
1534;DHT22;760;48.822;9.304;2022-09-12T19:09:05;19.10;94.70
1534;DHT22;760;48.822;9.304;2022-09-12T19:11:32;19.00;95.00
1534;DHT22;760;48.822;9.304;2022-09-12T19:13:57;18.90;95.20
1534;DHT22;760;48.822;9.304;2022-09-12T19:16:25;18.90;95.40
1534;DHT22;760;48.822;9.304;2022-09-12T19:18:53;18.80;95.40
1534;DHT22;760;48.822;9.304;2022-09-12T19:21:24;18.80;95.30
1534;DHT22;760;48.822;9.304;2022-09-12T19:23:52;18.70;95.30
1534;DHT22;760;48.822;9.304;2022-09-12T19:26:19;18.70;95.30
1534;DHT22;760;48.822;9.304;2022-09-12T19:28:45;18.70;95.50
1534;DHT22;760;48.822;9.304;2022-09-12T19:31:14;18.70;95.80
1534;DHT22;760;48.822;9.304;2022-09-12T19:33:40;18.60;96.10
1534;DHT22;760;48.822;9.304;2022-09-12T19:36:08;18.50;96.40
1534;DHT22;760;48.822;9.304;2022-09-12T19:38:34;18.50;96.90
1534;DHT22;760;48.822;9.304;2022-09-12T19:41:02;18.40;97.30
1534;DHT22;760;48.822;9.304;2022-09-12T19:43:29;18.30;97.70
1534;DHT22;760;48.822;9.304;2022-09-12T19:45:56;18.30;98.00
1534;DHT22;760;48.822;9.304;2022-09-12T19:48:21;18.20;98.40
1534;DHT22;760;48.822;9.304;2022-09-12T19:50:48;18.20;98.90
1534;DHT22;760;48.822;9.304;2022-09-12T19:53:14;18.10;99.30
1534;DHT22;760;48.822;9.304;2022-09-12T19:55:39;18.00;99.80
1534;DHT22;760;48.822;9.304;2022-09-12T19:58:05;18.00;99.90
1534;DHT22;760;48.822;9.304;2022-09-12T20:00:32;17.90;99.90
1534;DHT22;760;48.822;9.304;2022-09-12T20:02:58;17.90;99.90
1534;DHT22;760;48.822;9.304;2022-09-12T20:05:24;17.80;99.90
1534;DHT22;760;48.822;9.304;2022-09-12T20:07:49;17.80;99.90
1534;DHT22;760;48.822;9.304;2022-09-12T20:10:15;17.70;99.90
1534;DHT22;760;48.822;9.304;2022-09-12T20:12:40;17.70;99.90
1534;DHT22;760;48.822;9.304;2022-09-12T20:15:07;17.60;99.90
1534;DHT22;760;48.822;9.304;2022-09-12T20:17:33;17.50;99.90
1534;DHT22;760;48.822;9.304;2022-09-12T20:19:59;17.50;99.90
1534;DHT22;760;48.822;9.304;2022-09-12T20:22:25;17.50;99.90
1534;DHT22;760;48.822;9.304;2022-09-12T20:24:50;17.40;99.90
1534;DHT22;760;48.822;9.304;2022-09-12T20:27:16;17.40;99.90
1534;DHT22;760;48.822;9.304;2022-09-12T20:29:42;17.30;99.90
1534;DHT22;760;48.822;9.304;2022-09-12T20:32:08;17.30;99.90
1534;DHT22;760;48.822;9.304;2022-09-12T20:34:33;17.20;99.90
1534;DHT22;760;48.822;9.304;2022-09-12T20:36:59;17.10;99.90
1534;DHT22;760;48.822;9.304;2022-09-12T20:39:24;17.10;99.90
1534;DHT22;760;48.822;9.304;2022-09-12T20:41:50;17.00;99.90
1534;DHT22;760;48.822;9.304;2022-09-12T20:44:16;16.90;99.90
1534;DHT22;760;48.822;9.304;2022-09-12T20:46:42;16.90;99.90
1534;DHT22;760;48.822;9.304;2022-09-12T20:49:08;16.90;99.90
1534;DHT22;760;48.822;9.304;2022-09-12T20:51:34;16.80;99.90
1534;DHT22;760;48.822;9.304;2022-09-12T20:54:02;16.80;99.90
1534;DHT22;760;48.822;9.304;2022-09-12T20:56:29;16.70;99.90
1534;DHT22;760;48.822;9.304;2022-09-12T20:58:56;16.70;99.90
1534;DHT22;760;48.822;9.304;2022-09-12T21:01:22;16.60;99.90
1534;DHT22;760;48.822;9.304;2022-09-12T21:03:48;16.60;99.90
1534;DHT22;760;48.822;9.304;2022-09-12T21:06:14;16.50;99.90
1534;DHT22;760;48.822;9.304;2022-09-12T21:08:44;16.50;99.90
1534;DHT22;760;48.822;9.304;2022-09-12T21:11:10;16.40;99.90
1534;DHT22;760;48.822;9.304;2022-09-12T21:13:37;16.40;99.90
1534;DHT22;760;48.822;9.304;2022-09-12T21:16:21;16.30;99.90
1534;DHT22;760;48.822;9.304;2022-09-12T21:18:57;16.30;99.90
1534;DHT22;760;48.822;9.304;2022-09-12T21:21:24;16.30;99.90
1534;DHT22;760;48.822;9.304;2022-09-12T21:23:50;16.20;99.90
1534;DHT22;760;48.822;9.304;2022-09-12T21:26:16;16.20;99.90
1534;DHT22;760;48.822;9.304;2022-09-12T21:28:42;16.20;99.90
1534;DHT22;760;48.822;9.304;2022-09-12T21:31:08;16.20;99.90
1534;DHT22;760;48.822;9.304;2022-09-12T21:33:33;16.20;99.90
1534;DHT22;760;48.822;9.304;2022-09-12T21:36:06;16.20;99.90
1534;DHT22;760;48.822;9.304;2022-09-12T21:38:32;16.20;99.90
1534;DHT22;760;48.822;9.304;2022-09-12T21:41:10;16.20;99.90
1534;DHT22;760;48.822;9.304;2022-09-12T21:43:37;16.20;99.90
1534;DHT22;760;48.822;9.304;2022-09-12T21:46:03;16.10;99.90
1534;DHT22;760;48.822;9.304;2022-09-12T21:48:29;16.10;99.90
1534;DHT22;760;48.822;9.304;2022-09-12T21:50:55;16.10;99.90
1534;DHT22;760;48.822;9.304;2022-09-12T21:53:21;16.00;99.90
1534;DHT22;760;48.822;9.304;2022-09-12T21:55:46;16.00;99.90
1534;DHT22;760;48.822;9.304;2022-09-12T21:58:12;16.00;99.90
